Time;durP1;ratioP1;P1;durP2;ratioP2;P2;SDS_P1;SDS_P2;PMS_P1;PMS_P2;Temp;Humidity;BMP_temperature;BMP_pressure;BME280_temperature;BME280_humidity;BME280_pressure;Samples;Min_cycle;Max_cycle;Signal;HPM_P1;HPM_P2
2021/04/24 00:01:30;;;;;;;18.08;11.82;;;8.00;99.90;;;;;;5019761;28;20058;-80
2021/04/24 00:03:57;;;;;;;18.00;12.82;;;8.00;99.90;;;;;;5020482;28;20064;-79
2021/04/24 00:06:23;;;;;;;18.80;12.23;;;7.90;99.90;;;;;;5020073;28;20084;-79
2021/04/24 00:08:50;;;;;;;18.00;11.38;;;7.90;99.90;;;;;;5020587;28;20200;-81
2021/04/24 00:11:16;;;;;;;19.42;12.23;;;7.90;99.90;;;;;;5019046;28;20461;-80
2021/04/24 00:13:43;;;;;;;21.70;12.18;;;7.90;99.90;;;;;;5019586;28;20065;-80
2021/04/24 00:16:10;;;;;;;18.73;11.68;;;7.80;99.90;;;;;;5020103;28;20130;-82
2021/04/24 00:18:36;;;;;;;21.27;12.13;;;7.70;99.90;;;;;;5018920;28;20156;-80
2021/04/24 00:21:03;;;;;;;20.20;12.38;;;7.60;99.90;;;;;;5020966;28;20529;-81
2021/04/24 00:23:30;;;;;;;20.75;12.43;;;7.60;99.90;;;;;;5020989;28;20114;-81
2021/04/24 00:25:56;;;;;;;22.85;12.60;;;7.50;99.90;;;;;;5019609;28;20578;-80
2021/04/24 00:28:23;;;;;;;18.75;11.70;;;7.40;99.90;;;;;;5018607;28;20129;-81
2021/04/24 00:30:49;;;;;;;20.35;11.50;;;7.30;99.90;;;;;;5018811;28;20054;-80
2021/04/24 00:33:17;;;;;;;25.63;13.25;;;7.40;99.90;;;;;;5018364;28;20088;-79
2021/04/24 00:35:43;;;;;;;18.17;11.70;;;7.30;99.90;;;;;;5018829;28;20210;-80
2021/04/24 00:38:09;;;;;;;19.52;11.95;;;7.30;99.90;;;;;;5019525;28;20089;-80
2021/04/24 00:40:36;;;;;;;18.70;11.68;;;7.30;99.90;;;;;;5019330;28;20506;-80
2021/04/24 00:43:03;;;;;;;21.52;11.98;;;7.30;99.90;;;;;;5018983;28;20141;-80
2021/04/24 00:45:30;;;;;;;17.92;11.38;;;7.30;99.90;;;;;;5017391;28;20526;-78
2021/04/24 00:47:58;;;;;;;19.05;12.38;;;7.20;99.90;;;;;;5018518;28;20479;-79
2021/04/24 00:50:28;;;;;;;19.45;11.57;;;7.20;99.90;;;;;;5019502;28;20477;-79
2021/04/24 00:52:54;;;;;;;19.98;11.90;;;7.20;99.90;;;;;;5020169;28;20113;-79
2021/04/24 00:55:21;;;;;;;20.08;12.23;;;7.20;99.90;;;;;;5022259;28;20113;-78
2021/04/24 00:57:48;;;;;;;21.48;11.95;;;7.20;99.90;;;;;;5018193;28;20085;-79
2021/04/24 01:00:16;;;;;;;19.35;11.30;;;7.20;99.90;;;;;;5019161;28;20060;-80
2021/04/24 01:02:43;;;;;;;17.55;11.52;;;7.20;99.90;;;;;;5018306;28;20114;-79
2021/04/24 01:05:11;;;;;;;17.70;11.07;;;7.20;99.90;;;;;;5018310;28;20045;-78
2021/04/24 01:07:39;;;;;;;18.52;11.05;;;7.20;99.90;;;;;;5018563;28;20477;-80
2021/04/24 01:10:07;;;;;;;18.13;11.07;;;7.20;99.90;;;;;;5019184;28;20137;-80
2021/04/24 01:12:33;;;;;;;16.90;10.60;;;7.20;99.90;;;;;;5019122;28;20495;-82
2021/04/24 01:15:00;;;;;;;18.70;10.85;;;7.20;99.90;;;;;;5018338;28;20084;-80
2021/04/24 01:17:27;;;;;;;18.55;10.18;;;7.20;99.90;;;;;;5016129;28;20054;-79
2021/04/24 01:19:53;;;;;;;19.60;10.75;;;7.20;99.90;;;;;;5017044;28;20112;-78
2021/04/24 01:22:21;;;;;;;17.67;10.63;;;7.20;99.90;;;;;;5016419;28;20060;-78
2021/04/24 01:24:48;;;;;;;16.63;10.40;;;7.20;99.90;;;;;;5015938;28;20398;-78
2021/04/24 01:27:14;;;;;;;17.65;10.65;;;7.10;99.90;;;;;;5015747;28;20085;-78
2021/04/24 01:29:42;;;;;;;17.35;10.30;;;7.10;99.90;;;;;;5015387;28;20050;-80
2021/04/24 01:32:08;;;;;;;21.77;10.38;;;7.00;99.90;;;;;;5014727;28;20137;-80
2021/04/24 01:34:35;;;;;;;15.25;10.13;;;7.00;99.90;;;;;;5015307;28;20129;-79
2021/04/24 01:37:03;;;;;;;20.05;10.52;;;7.00;99.90;;;;;;5015230;28;20582;-82
2021/04/24 01:39:31;;;;;;;15.70;10.07;;;7.00;99.90;;;;;;5015870;28;20133;-82
2021/04/24 01:41:58;;;;;;;14.52;9.27;;;6.90;99.90;;;;;;5015891;28;20056;-81
2021/04/24 01:44:25;;;;;;;19.17;10.38;;;6.90;99.90;;;;;;5017144;28;20060;-82
2021/04/24 01:46:52;;;;;;;18.15;9.95;;;6.80;99.90;;;;;;5020927;28;20140;-81
2021/04/24 01:49:18;;;;;;;16.35;9.65;;;6.80;99.90;;;;;;5019549;28;20053;-81
2021/04/24 01:51:45;;;;;;;18.50;9.75;;;6.80;99.90;;;;;;5019799;28;20109;-80
2021/04/24 01:54:11;;;;;;;13.38;8.73;;;6.80;99.90;;;;;;5019072;28;20113;-81
2021/04/24 01:56:47;;;;;;;18.70;9.77;;;6.70;99.90;;;;;;5020690;28;20050;-81
2021/04/24 01:59:14;;;;;;;18.92;9.60;;;6.60;99.90;;;;;;5018403;28;20133;-83
2021/04/24 02:01:41;;;;;;;20.17;9.32;;;6.60;99.90;;;;;;5018683;28;20077;-81
2021/04/24 02:04:07;;;;;;;16.08;8.85;;;6.50;99.90;;;;;;5021198;28;20049;-81
2021/04/24 02:06:34;;;;;;;15.05;8.75;;;6.50;99.90;;;;;;5021489;28;20084;-80
2021/04/24 02:09:01;;;;;;;17.17;9.25;;;6.50;99.90;;;;;;5020296;28;20132;-80
2021/04/24 02:11:27;;;;;;;14.43;9.05;;;6.40;99.90;;;;;;5017007;28;20105;-81
2021/04/24 02:13:54;;;;;;;15.57;10.13;;;6.40;99.90;;;;;;5018402;28;20113;-80
2021/04/24 02:16:21;;;;;;;14.55;8.65;;;6.40;99.90;;;;;;5023573;28;20538;-79
2021/04/24 02:18:47;;;;;;;17.98;9.10;;;6.40;99.90;;;;;;5019408;28;20050;-79
2021/04/24 02:21:14;;;;;;;15.93;8.63;;;6.40;99.90;;;;;;5018060;28;20085;-80
2021/04/24 02:23:40;;;;;;;17.70;8.63;;;6.30;99.90;;;;;;5017797;28;20084;-80
2021/04/24 02:26:09;;;;;;;12.90;8.57;;;6.30;99.90;;;;;;5018375;28;20052;-79
2021/04/24 02:28:36;;;;;;;17.45;8.60;;;6.20;99.90;;;;;;5016541;28;20177;-80
2021/04/24 02:31:03;;;;;;;15.88;7.93;;;6.20;99.90;;;;;;5017283;28;20065;-80
2021/04/24 02:33:30;;;;;;;13.75;9.35;;;6.10;99.90;;;;;;5016891;28;20145;-78
2021/04/24 02:35:58;;;;;;;19.42;8.95;;;6.00;99.90;;;;;;5015692;28;20180;-79
2021/04/24 02:38:28;;;;;;;17.23;9.75;;;5.90;99.90;;;;;;5015996;28;20054;-79
2021/04/24 02:40:56;;;;;;;15.40;8.18;;;5.90;99.90;;;;;;5017495;28;20056;-80
2021/04/24 02:43:23;;;;;;;11.10;7.55;;;5.90;99.90;;;;;;5018184;28;20131;-80
2021/04/24 02:45:50;;;;;;;14.38;7.85;;;5.90;99.90;;;;;;5017943;28;20073;-80
2021/04/24 02:48:18;;;;;;;14.88;8.95;;;5.80;99.90;;;;;;5019272;28;20081;-81
2021/04/24 02:50:45;;;;;;;15.45;8.43;;;5.80;99.90;;;;;;5020377;28;20118;-82
2021/04/24 02:53:11;;;;;;;15.73;8.27;;;5.80;99.90;;;;;;5018832;28;20085;-81
2021/04/24 02:58:06;;;;;;;19.80;8.43;;;5.80;99.90;;;;;;5041164;28;20475;-79
2021/04/24 03:00:32;;;;;;;15.65;7.63;;;5.80;99.90;;;;;;5034202;28;20509;-79
2021/04/24 03:03:01;;;;;;;15.80;8.20;;;5.70;99.90;;;;;;5037121;28;20049;-79
2021/04/24 03:05:29;;;;;;;13.73;8.07;;;5.70;99.90;;;;;;5032722;28;20529;-80
2021/04/24 03:07:56;;;;;;;23.58;8.23;;;5.80;99.90;;;;;;5016727;28;20089;-80
2021/04/24 03:10:23;;;;;;;12.48;7.72;;;5.80;99.90;;;;;;5021308;28;20133;-80
2021/04/24 03:12:50;;;;;;;14.10;8.07;;;5.80;99.90;;;;;;5022969;28;20073;-80
2021/04/24 03:15:16;;;;;;;15.82;8.00;;;5.70;99.90;;;;;;5022223;28;20512;-80
2021/04/24 03:17:47;;;;;;;13.88;7.85;;;5.70;99.90;;;;;;5021906;28;20085;-80
2021/04/24 03:20:16;;;;;;;14.73;9.02;;;5.70;99.90;;;;;;5020880;28;20069;-81
2021/04/24 03:22:44;;;;;;;14.77;8.00;;;5.70;99.90;;;;;;5022791;28;20098;-81
2021/04/24 03:25:12;;;;;;;12.82;8.07;;;5.70;99.90;;;;;;5021127;28;20510;-81
2021/04/24 03:27:39;;;;;;;13.13;7.43;;;5.70;99.90;;;;;;5021237;28;20053;-81
2021/04/24 03:30:08;;;;;;;15.85;7.68;;;5.60;99.90;;;;;;5022157;28;20116;-82
2021/04/24 03:32:34;;;;;;;16.38;7.85;;;5.70;99.90;;;;;;5024000;28;20442;-82
2021/04/24 03:35:01;;;;;;;14.65;8.02;;;5.60;99.90;;;;;;5023265;28;20081;-82
2021/04/24 03:37:27;;;;;;;14.00;7.45;;;5.60;99.90;;;;;;5022108;28;20477;-80
2021/04/24 03:39:55;;;;;;;13.55;7.72;;;5.60;99.90;;;;;;5021804;28;20561;-82
2021/04/24 03:42:21;;;;;;;19.77;7.82;;;5.60;99.90;;;;;;5023712;28;20093;-82
2021/04/24 03:44:48;;;;;;;15.93;7.78;;;5.60;99.90;;;;;;5021574;28;20069;-81
2021/04/24 03:47:14;;;;;;;14.57;8.10;;;5.60;99.90;;;;;;5021177;28;20050;-79
2021/04/24 03:49:41;;;;;;;18.23;8.35;;;5.60;99.90;;;;;;5022430;28;20056;-82
2021/04/24 03:52:08;;;;;;;13.13;7.60;;;5.50;99.90;;;;;;5024210;28;20057;-81
2021/04/24 03:54:34;;;;;;;14.07;7.50;;;5.50;99.90;;;;;;5023213;28;20108;-81
2021/04/24 03:57:02;;;;;;;13.50;7.60;;;5.50;99.90;;;;;;5022156;28;20089;-81
2021/04/24 03:59:28;;;;;;;18.30;8.45;;;5.40;99.90;;;;;;5022221;28;20088;-81
2021/04/24 04:01:55;;;;;;;17.50;9.43;;;5.30;99.90;;;;;;5022443;28;20110;-82
2021/04/24 04:04:21;;;;;;;15.52;8.85;;;5.30;99.90;;;;;;5021854;28;20081;-81
2021/04/24 04:06:48;;;;;;;14.43;8.20;;;5.30;99.90;;;;;;5021830;28;20134;-80
2021/04/24 04:09:14;;;;;;;13.93;7.90;;;5.30;99.90;;;;;;5023021;28;20054;-81
2021/04/24 04:11:40;;;;;;;13.80;7.90;;;5.30;99.90;;;;;;5033203;28;20054;-82
2021/04/24 04:14:08;;;;;;;14.02;7.93;;;5.30;99.90;;;;;;5034278;28;20042;-82
2021/04/24 04:16:35;;;;;;;15.48;8.30;;;5.20;99.90;;;;;;5032492;28;20062;-81
2021/04/24 04:19:01;;;;;;;19.60;8.80;;;5.20;99.90;;;;;;5022156;28;20096;-81
2021/04/24 04:21:28;;;;;;;14.93;7.70;;;5.30;99.90;;;;;;5021780;28;20084;-82
2021/04/24 04:23:54;;;;;;;13.07;8.30;;;5.20;99.90;;;;;;5022941;28;20113;-82
2021/04/24 04:26:20;;;;;;;12.80;7.38;;;5.20;99.90;;;;;;5021621;28;20089;-83
2021/04/24 04:28:50;;;;;;;13.15;7.55;;;5.20;99.90;;;;;;5022878;28;20089;-83
2021/04/24 04:31:17;;;;;;;14.57;8.05;;;5.30;99.90;;;;;;5021724;28;20049;-81
2021/04/24 04:33:44;;;;;;;17.80;7.57;;;5.30;99.90;;;;;;5020264;28;20116;-82
2021/04/24 04:36:10;;;;;;;13.52;7.60;;;5.30;99.90;;;;;;5019909;28;20100;-79
2021/04/24 04:38:36;;;;;;;14.57;8.02;;;5.30;99.90;;;;;;5020300;28;20056;-81
2021/04/24 04:41:05;;;;;;;13.45;7.70;;;5.30;99.90;;;;;;5022840;28;20061;-83
2021/04/24 04:43:32;;;;;;;12.48;7.68;;;5.40;99.90;;;;;;5028693;28;20137;-82
2021/04/24 04:45:58;;;;;;;17.98;7.97;;;5.30;99.90;;;;;;5033267;28;20050;-84
2021/04/24 04:48:25;;;;;;;12.77;7.57;;;5.30;99.90;;;;;;5031092;28;20419;-81
2021/04/24 04:50:52;;;;;;;18.10;7.90;;;5.40;99.90;;;;;;5027408;28;20119;-80
2021/04/24 04:53:18;;;;;;;12.32;7.80;;;5.40;99.90;;;;;;5025760;28;20073;-78
2021/04/24 04:55:45;;;;;;;12.90;7.55;;;5.50;99.90;;;;;;5021107;28;20068;-80
2021/04/24 04:58:11;;;;;;;15.30;7.13;;;5.50;99.90;;;;;;5020240;28;20085;-81
2021/04/24 05:00:38;;;;;;;13.73;7.85;;;5.60;99.90;;;;;;5019802;28;20418;-82
2021/04/24 05:03:04;;;;;;;17.98;8.23;;;5.60;99.90;;;;;;5018392;28;20054;-80
2021/04/24 05:05:31;;;;;;;18.15;7.72;;;5.60;99.90;;;;;;5015993;28;20133;-83
2021/04/24 05:07:58;;;;;;;14.50;7.60;;;5.70;99.90;;;;;;5018241;28;20085;-80
2021/04/24 05:10:27;;;;;;;18.23;7.97;;;5.70;99.90;;;;;;5019375;28;20065;-80
2021/04/24 05:13:09;;;;;;;11.30;7.38;;;5.70;99.90;;;;;;5018539;28;20409;-80
2021/04/24 05:15:44;;;;;;;12.27;7.43;;;5.80;99.90;;;;;;5018921;28;20064;-81
2021/04/24 05:18:11;;;;;;;13.82;7.72;;;5.80;99.90;;;;;;5018141;28;20279;-81
2021/04/24 05:20:41;;;;;;;14.18;7.45;;;5.90;99.90;;;;;;5017202;28;20104;-82
2021/04/24 05:23:07;;;;;;;17.70;7.35;;;6.00;99.90;;;;;;5017461;28;20081;-85
2021/04/24 05:25:45;;;;;;;11.90;7.32;;;6.10;99.90;;;;;;5018433;28;20046;-83
2021/04/24 05:31:27;;;;;;;15.27;7.40;;;6.50;99.90;;;;;;5016903;28;20550;-82
2021/04/24 05:33:55;;;;;;;11.82;7.32;;;6.80;99.90;;;;;;5027922;28;20085;-84
2021/04/24 05:36:22;;;;;;;12.90;7.10;;;7.00;99.90;;;;;;5028515;28;20056;-83
2021/04/24 05:38:49;;;;;;;11.88;6.60;;;7.20;99.90;;;;;;5027020;28;20053;-83
2021/04/24 05:41:25;;;;;;;15.52;7.40;;;7.40;99.90;;;;;;5028997;28;20164;-83
2021/04/24 05:44:08;;;;;;;13.63;7.38;;;7.60;99.90;;;;;;5024935;28;20053;-85
2021/04/24 05:47:12;;;;;;;13.10;7.22;;;7.70;99.90;;;;;;5023510;28;20050;-85
2021/04/24 05:49:51;;;;;;;12.02;6.82;;;7.80;99.90;;;;;;5022980;28;20057;-84
2021/04/24 05:52:18;;;;;;;12.27;6.47;;;8.00;99.90;;;;;;5022257;28;20070;-82
2021/04/24 05:54:45;;;;;;;14.93;7.28;;;8.00;99.90;;;;;;5022556;28;20050;-82
2021/04/24 05:57:12;;;;;;;10.48;6.75;;;8.00;99.90;;;;;;5021912;28;20085;-85
2021/04/24 05:59:41;;;;;;;13.23;7.35;;;8.00;99.90;;;;;;5020970;28;20081;-85
2021/04/24 06:02:13;;;;;;;11.68;7.35;;;8.10;99.90;;;;;;5023102;28;20045;-83
2021/04/24 06:04:40;;;;;;;15.55;6.80;;;8.50;99.90;;;;;;5024058;28;20057;-83
2021/04/24 06:07:07;;;;;;;14.73;6.35;;;9.00;99.90;;;;;;5021895;28;20111;-81
2021/04/24 06:16:43;;;;;;;10.80;7.15;;;10.30;99.90;;;;;;4984014;28;20203;-83
2021/04/24 06:19:09;;;;;;;12.88;6.97;;;10.00;99.90;;;;;;5021238;28;20529;-83
2021/04/24 06:21:36;;;;;;;13.13;6.90;;;9.70;99.90;;;;;;5021847;28;20050;-83
2021/04/24 06:24:02;;;;;;;12.85;7.18;;;9.40;99.90;;;;;;5020822;28;20056;-83
2021/04/24 06:33:37;;;;;;;12.13;6.85;;;8.70;99.90;;;;;;4863467;29;20064;-80
2021/04/24 06:36:09;;;;;;;11.95;6.70;;;8.40;99.90;;;;;;4887820;29;20417;-82
2021/04/24 06:38:45;;;;;;;11.70;7.47;;;8.30;99.90;;;;;;4946251;28;20058;-84
2021/04/24 06:41:11;;;;;;;14.43;7.55;;;8.10;99.90;;;;;;5017891;28;20119;-82
2021/04/24 06:43:38;;;;;;;11.90;7.15;;;8.10;99.90;;;;;;5020032;28;20065;-83
2021/04/24 06:46:04;;;;;;;11.07;6.78;;;8.40;99.90;;;;;;5022452;28;20058;-82
2021/04/24 06:48:31;;;;;;;13.98;7.05;;;8.40;99.90;;;;;;5021722;28;20490;-81
2021/04/24 06:50:58;;;;;;;13.20;6.50;;;8.70;99.90;;;;;;5021524;28;20045;-82
2021/04/24 06:53:26;;;;;;;13.63;6.80;;;9.00;99.90;;;;;;5022281;28;20065;-82
2021/04/24 06:55:54;;;;;;;14.77;6.93;;;9.20;99.90;;;;;;5021738;28;20053;-83
2021/04/24 06:58:21;;;;;;;15.27;7.10;;;9.20;99.90;;;;;;5022162;28;20148;-81
2021/04/24 07:00:47;;;;;;;14.65;7.20;;;9.10;99.90;;;;;;5025386;28;20066;-81
2021/04/24 07:03:14;;;;;;;17.10;6.90;;;9.20;99.90;;;;;;5024073;28;20080;-79
2021/04/24 07:05:40;;;;;;;14.15;7.57;;;9.10;99.90;;;;;;5027546;28;20073;-80
2021/04/24 07:08:06;;;;;;;14.75;7.47;;;9.10;99.90;;;;;;5031910;28;20096;-81
2021/04/24 07:10:34;;;;;;;10.57;6.85;;;9.50;99.90;;;;;;5036653;28;20069;-81
2021/04/24 07:13:00;;;;;;;11.13;6.40;;;9.90;99.90;;;;;;5032576;28;20070;-81
2021/04/24 07:15:27;;;;;;;13.35;7.15;;;10.30;99.90;;;;;;5022018;28;20073;-80
2021/04/24 07:17:53;;;;;;;16.63;7.00;;;10.50;99.90;;;;;;5021350;28;20506;-81
2021/04/24 07:20:20;;;;;;;10.63;6.85;;;10.70;99.90;;;;;;5020120;28;20077;-80
2021/04/24 07:22:46;;;;;;;11.50;7.10;;;10.70;99.90;;;;;;5019739;28;20050;-80
2021/04/24 07:25:14;;;;;;;9.73;6.10;;;10.80;99.90;;;;;;5019596;28;20136;-80
2021/04/24 07:27:42;;;;;;;9.57;6.60;;;11.40;99.90;;;;;;5020077;28;20042;-81
2021/04/24 07:30:10;;;;;;;10.57;6.28;;;12.30;99.90;;;;;;5018125;28;20089;-79
2021/04/24 07:32:37;;;;;;;9.40;6.53;;;12.90;99.90;;;;;;5020024;28;20045;-80
2021/04/24 07:35:04;;;;;;;12.60;6.45;;;12.90;99.90;;;;;;5021168;28;20082;-80
2021/04/24 07:37:31;;;;;;;11.25;6.13;;;12.60;99.90;;;;;;5020182;28;20124;-79
2021/04/24 07:39:57;;;;;;;12.07;6.00;;;12.30;99.90;;;;;;5021380;28;20078;-82
2021/04/24 07:42:23;;;;;;;10.32;5.82;;;12.30;99.90;;;;;;5023753;28;20105;-81
2021/04/24 07:44:51;;;;;;;10.93;6.03;;;12.50;99.90;;;;;;5023479;28;20118;-81
2021/04/24 07:47:17;;;;;;;10.27;5.90;;;12.50;99.90;;;;;;5020932;28;20089;-79
2021/04/24 07:49:44;;;;;;;9.35;5.35;;;12.90;99.90;;;;;;5019561;28;20085;-80
2021/04/24 07:52:11;;;;;;;10.73;5.60;;;13.00;99.90;;;;;;5020737;28;20514;-81
2021/04/24 07:54:42;;;;;;;9.98;5.25;;;12.50;99.90;;;;;;5019984;28;20088;-79
2021/04/24 07:57:09;;;;;;;10.02;5.43;;;11.70;99.90;;;;;;5019840;28;20069;-80
2021/04/24 07:59:35;;;;;;;10.73;5.90;;;11.40;99.90;;;;;;5020883;28;20057;-80
2021/04/24 08:02:03;;;;;;;7.20;5.43;;;11.40;99.90;;;;;;5021068;28;20081;-79
2021/04/24 08:04:31;;;;;;;8.98;5.70;;;11.50;99.90;;;;;;5020021;28;20042;-81
2021/04/24 08:06:57;;;;;;;8.15;5.30;;;11.80;99.90;;;;;;5019319;28;20046;-81
2021/04/24 08:09:26;;;;;;;8.80;5.40;;;12.00;99.90;;;;;;5020203;28;20418;-81
2021/04/24 08:11:53;;;;;;;7.85;5.65;;;11.80;99.90;;;;;;5021133;28;20118;-80
2021/04/24 08:14:19;;;;;;;10.13;5.90;;;11.80;99.90;;;;;;5020357;28;20073;-82
2021/04/24 08:16:46;;;;;;;9.07;5.85;;;11.90;99.90;;;;;;5019665;28;20050;-80
2021/04/24 08:19:13;;;;;;;10.02;5.40;;;12.00;99.90;;;;;;5021018;28;20395;-80
2021/04/24 08:21:40;;;;;;;8.27;5.57;;;12.20;99.90;;;;;;5020484;28;20084;-80
2021/04/24 08:24:07;;;;;;;8.07;5.55;;;12.30;99.90;;;;;;5019472;28;20107;-79
2021/04/24 08:26:34;;;;;;;9.27;5.35;;;12.60;99.90;;;;;;5025445;28;20050;-80
2021/04/24 08:29:00;;;;;;;9.88;5.22;;;13.00;99.90;;;;;;5035346;28;20070;-80
2021/04/24 08:31:27;;;;;;;8.38;5.78;;;13.40;99.90;;;;;;5035771;28;20054;-80
2021/04/24 08:33:53;;;;;;;9.18;5.30;;;13.70;99.90;;;;;;5034056;28;20046;-81
2021/04/24 08:36:21;;;;;;;9.82;5.95;;;13.30;99.90;;;;;;5026536;28;20054;-80
2021/04/24 08:38:47;;;;;;;10.43;5.43;;;13.10;99.90;;;;;;5018039;28;20093;-80
2021/04/24 08:41:13;;;;;;;9.95;5.28;;;13.00;99.90;;;;;;5018282;28;20089;-79
2021/04/24 08:43:40;;;;;;;10.95;5.40;;;13.10;99.90;;;;;;5018513;28;20542;-81
2021/04/24 08:46:07;;;;;;;11.75;5.97;;;13.40;99.90;;;;;;5019661;28;20144;-78
2021/04/24 08:48:35;;;;;;;8.80;5.50;;;13.10;99.90;;;;;;5016301;28;20142;-79
2021/04/24 08:51:02;;;;;;;8.82;5.85;;;13.20;99.90;;;;;;5016203;28;20053;-78
2021/04/24 08:53:29;;;;;;;11.32;5.93;;;12.90;99.90;;;;;;5015510;28;20382;-78
2021/04/24 08:58:30;;;;;;;9.20;5.53;;;12.80;99.90;;;;;;5067912;23;20575;-80
2021/04/24 09:00:57;;;;;;;8.95;5.50;;;12.60;99.90;;;;;;5056962;28;20053;-80
2021/04/24 09:03:23;;;;;;;11.57;6.50;;;12.70;99.90;;;;;;5061600;28;20112;-80
2021/04/24 09:05:51;;;;;;;10.38;6.22;;;13.00;99.90;;;;;;5062712;28;20164;-80
2021/04/24 09:08:23;;;;;;;9.75;6.65;;;13.20;99.90;;;;;;5043520;28;20077;-78
2021/04/24 09:10:53;;;;;;;;;;;12.30;99.90;;;;;;5039839;28;20056;-80
2021/04/24 09:13:22;;;;;;;11.77;6.63;;;12.10;99.90;;;;;;5037973;28;19970;-78
2021/04/24 09:15:50;;;;;;;13.18;6.97;;;12.40;99.90;;;;;;5039713;28;20076;-80
2021/04/24 09:18:18;;;;;;;13.52;6.88;;;12.70;99.90;;;;;;5034086;28;20490;-79
2021/04/24 09:20:46;;;;;;;11.23;7.10;;;12.90;99.90;;;;;;5032929;28;20077;-78
2021/04/24 09:23:15;;;;;;;11.05;6.88;;;13.10;99.90;;;;;;5043182;28;20053;-81
2021/04/24 09:25:44;;;;;;;11.63;7.05;;;13.00;99.90;;;;;;5042825;28;20049;-80
2021/04/24 09:28:23;;;;;;;10.77;7.30;;;12.70;99.90;;;;;;5040975;28;20109;-79
2021/04/24 09:30:49;;;;;;;10.52;7.03;;;12.60;99.90;;;;;;5040149;28;20490;-79
2021/04/24 09:33:16;;;;;;;11.70;9.07;;;12.90;99.90;;;;;;5035887;28;20095;-79
2021/04/24 09:35:47;;;;;;;17.27;9.32;;;12.50;99.90;;;;;;5037568;28;20131;-79
2021/04/24 09:38:19;;;;;;;11.65;7.03;;;12.40;99.90;;;;;;5033970;28;20474;-78
2021/04/24 09:41:05;;;;;;;9.90;6.55;;;12.10;99.90;;;;;;5037487;28;20069;-79
2021/04/24 09:43:56;;;;;;;11.00;6.78;;;12.20;99.90;;;;;;5037372;28;20140;-79
2021/04/24 09:46:23;;;;;;;12.25;6.72;;;12.00;99.90;;;;;;4994744;28;20144;-79
2021/04/24 09:48:50;;;;;;;11.70;6.60;;;12.10;99.90;;;;;;4998108;28;20054;-79
2021/04/24 09:51:18;;;;;;;12.48;7.10;;;12.20;99.90;;;;;;4997433;28;20110;-79
2021/04/24 09:53:55;;;;;;;11.15;6.43;;;12.40;99.90;;;;;;5001602;28;20228;-79
2021/04/24 09:56:24;;;;;;;11.18;6.70;;;12.30;99.90;;;;;;5002184;28;20117;-80
2021/04/24 09:58:50;;;;;;;11.13;7.30;;;11.90;99.90;;;;;;5001256;28;20054;-79
2021/04/24 10:01:22;;;;;;;11.15;7.25;;;11.90;99.90;;;;;;5003918;28;20101;-80
2021/04/24 10:03:55;;;;;;;13.35;7.63;;;12.10;99.90;;;;;;5004214;28;20054;-80
2021/04/24 10:06:31;;;;;;;9.30;6.60;;;12.30;99.90;;;;;;5002984;28;20055;-79
2021/04/24 10:09:23;;;;;;;13.60;8.02;;;12.20;99.90;;;;;;5004171;28;20112;-80
2021/04/24 10:12:11;;;;;;;13.18;7.53;;;11.90;99.90;;;;;;5001754;28;20060;-79
2021/04/24 10:14:45;;;;;;;11.48;7.22;;;12.00;99.90;;;;;;5001277;28;20053;-79
2021/04/24 10:17:14;;;;;;;11.02;7.28;;;12.10;99.90;;;;;;5001010;28;20188;-78
2021/04/24 10:19:45;;;;;;;11.50;7.20;;;12.20;99.90;;;;;;5000484;28;20081;-80
2021/04/24 10:22:13;;;;;;;12.90;8.18;;;11.80;99.90;;;;;;4994234;28;20109;-79
2021/04/24 10:24:40;;;;;;;11.60;7.60;;;11.80;99.90;;;;;;4995070;28;20046;-78
2021/04/24 10:27:08;;;;;;;11.90;8.52;;;12.00;99.90;;;;;;4991968;28;20146;-78
2021/04/24 10:29:34;;;;;;;14.10;7.93;;;12.00;99.90;;;;;;4999489;28;20054;-80
2021/04/24 10:32:03;;;;;;;12.20;8.02;;;12.20;99.90;;;;;;5004175;28;20515;-79
2021/04/24 10:34:31;;;;;;;13.43;7.60;;;12.20;99.90;;;;;;5003213;28;20456;-79
2021/04/24 10:36:58;;;;;;;12.48;7.65;;;12.20;99.90;;;;;;4998982;28;20503;-79
2021/04/24 10:39:26;;;;;;;12.82;7.47;;;12.20;99.90;;;;;;5002444;28;20415;-79
2021/04/24 10:42:02;;;;;;;11.75;7.50;;;12.20;99.90;;;;;;5000905;28;20109;-80
2021/04/24 10:44:45;;;;;;;11.43;7.53;;;12.40;99.90;;;;;;5003054;28;20078;-80
2021/04/24 10:47:11;;;;;;;12.55;7.03;;;12.70;99.90;;;;;;5001706;28;20133;-80
2021/04/24 10:49:53;;;;;;;10.88;7.07;;;12.50;99.90;;;;;;5002164;28;20086;-80
2021/04/24 10:52:21;;;;;;;11.20;7.45;;;12.10;99.90;;;;;;5002926;28;20057;-80
2021/04/24 10:55:22;;;;;;;8.20;6.57;;;12.10;99.90;;;;;;5004166;28;20046;-80
2021/04/24 10:57:54;;;;;;;11.23;7.07;;;12.20;99.90;;;;;;5002210;28;20077;-80
2021/04/24 11:00:23;;;;;;;10.55;7.05;;;12.20;99.90;;;;;;5003863;28;20046;-80
2021/04/24 11:02:51;;;;;;;11.65;7.03;;;12.30;99.90;;;;;;5004092;28;20050;-80
2021/04/24 11:05:26;;;;;;;10.70;7.38;;;12.30;99.90;;;;;;5003289;28;20074;-80
2021/04/24 11:08:25;;;;;;;10.98;6.97;;;12.20;99.90;;;;;;5000834;28;20050;-81
2021/04/24 11:11:01;;;;;;;15.00;9.90;;;12.60;99.90;;;;;;5002413;28;20534;-81
2021/04/24 11:13:30;;;;;;;13.88;7.35;;;12.90;99.90;;;;;;5002910;28;20055;-80
2021/04/24 11:15:58;;;;;;;14.38;7.47;;;13.10;99.90;;;;;;5001516;28;20047;-80
2021/04/24 11:18:24;;;;;;;11.25;7.05;;;13.10;99.90;;;;;;5002806;28;20074;-79
2021/04/24 11:20:58;;;;;;;10.20;7.15;;;13.00;99.90;;;;;;5001788;28;20078;-78
2021/04/24 11:23:42;;;;;;;10.88;7.05;;;13.00;99.90;;;;;;5001103;28;20204;-79
2021/04/24 11:26:10;;;;;;;12.40;9.57;;;13.00;99.90;;;;;;4998161;28;20060;-80
2021/04/24 11:29:03;;;;;;;11.35;8.27;;;13.20;99.90;;;;;;4996986;28;20132;-81
2021/04/24 11:31:46;;;;;;;;;;;13.40;99.90;;;;;;5006935;28;20101;-81
2021/04/24 11:34:26;;;;;;;15.40;10.70;;;13.40;99.90;;;;;;5006705;28;19985;-80
2021/04/24 11:37:27;;;;;;;13.50;8.30;;;13.00;99.90;;;;;;5005651;28;20085;-80
2021/04/24 11:40:28;;;;;;;10.20;6.68;;;12.80;99.90;;;;;;5002812;28;20081;-80
2021/04/24 11:43:04;;;;;;;11.90;6.65;;;12.60;99.90;;;;;;5006056;28;20180;-79
2021/04/24 11:46:04;;;;;;;11.65;7.22;;;12.70;99.90;;;;;;5008195;28;20467;-80
2021/04/24 11:49:05;;;;;;;10.65;6.90;;;12.70;99.90;;;;;;5006824;28;20046;-80
2021/04/24 11:51:34;;;;;;;11.98;7.65;;;12.70;99.90;;;;;;5006757;28;20051;-80
2021/04/24 11:54:03;;;;;;;11.95;7.68;;;12.70;99.90;;;;;;5006932;28;20069;-80
2021/04/24 11:56:29;;;;;;;11.65;7.30;;;12.90;99.90;;;;;;5005812;28;20148;-80
2021/04/24 11:58:56;;;;;;;13.23;7.90;;;13.00;99.90;;;;;;5004312;28;20144;-79
2021/04/24 12:01:24;;;;;;;14.60;7.90;;;12.90;99.90;;;;;;5003582;28;20133;-80
2021/04/24 12:03:51;;;;;;;9.35;6.90;;;13.10;99.90;;;;;;5002834;28;20057;-82
2021/04/24 12:06:43;;;;;;;11.65;7.22;;;13.40;99.90;;;;;;5007041;28;20057;-79
2021/04/24 12:09:12;;;;;;;10.43;7.20;;;13.40;99.90;;;;;;5002932;28;20062;-79
2021/04/24 12:11:40;;;;;;;14.18;7.45;;;13.60;99.90;;;;;;5005469;28;20118;-81
2021/04/24 12:14:06;;;;;;;8.75;6.05;;;13.60;99.90;;;;;;4999832;28;20061;-82
2021/04/24 12:16:44;;;;;;;10.98;6.75;;;13.80;99.90;;;;;;5005597;28;20104;-81
2021/04/24 12:19:29;;;;;;;11.20;7.57;;;13.70;99.90;;;;;;5007820;28;20053;-81
2021/04/24 12:22:13;;;;;;;12.98;8.43;;;13.60;99.90;;;;;;5006726;28;20054;-78
2021/04/24 12:25:02;;;;;;;11.45;7.55;;;13.60;99.90;;;;;;5001689;28;20118;-81
2021/04/24 12:27:47;;;;;;;10.43;7.35;;;13.80;99.90;;;;;;5001550;28;20065;-80
2021/04/24 12:30:18;;;;;;;11.73;7.78;;;13.80;99.90;;;;;;5003268;28;20042;-80
2021/04/24 12:32:47;;;;;;;13.43;7.78;;;13.80;99.90;;;;;;5000526;28;20138;-80
2021/04/24 12:35:20;;;;;;;10.18;6.90;;;13.70;99.90;;;;;;5003593;28;20050;-79
2021/04/24 12:37:48;;;;;;;10.30;7.20;;;13.50;99.90;;;;;;5003573;28;20050;-79
2021/04/24 12:40:19;;;;;;;12.10;7.20;;;13.60;99.90;;;;;;5004612;28;20054;-79
2021/04/24 12:42:46;;;;;;;11.68;6.78;;;13.60;99.90;;;;;;5000511;28;20050;-79
2021/04/24 12:45:17;;;;;;;14.10;6.22;;;13.70;99.90;;;;;;5004136;28;20108;-80
2021/04/24 12:47:44;;;;;;;10.13;6.80;;;13.80;99.90;;;;;;5000834;28;20089;-80
2021/04/24 12:50:15;;;;;;;9.43;6.43;;;14.00;99.90;;;;;;5001668;28;20061;-80
2021/04/24 12:52:44;;;;;;;8.18;6.45;;;14.20;99.90;;;;;;5005039;28;20061;-80
2021/04/24 12:55:11;;;;;;;9.68;6.70;;;14.40;99.90;;;;;;5003749;28;20043;-78
2021/04/24 12:57:48;;;;;;;10.93;6.72;;;14.50;99.90;;;;;;5003766;28;20074;-80
2021/04/24 13:00:16;;;;;;;8.85;6.25;;;14.60;99.90;;;;;;5005600;28;20129;-80
2021/04/24 13:02:42;;;;;;;11.07;7.20;;;14.60;99.90;;;;;;5005778;28;20057;-80
2021/04/24 13:05:11;;;;;;;10.38;6.65;;;14.60;99.70;;;;;;5006555;28;20046;-81
2021/04/24 13:07:37;;;;;;;10.60;6.65;;;14.50;99.90;;;;;;5004840;28;20046;-80
2021/04/24 13:10:14;;;;;;;9.55;6.20;;;14.60;99.90;;;;;;5004576;28;20100;-79
2021/04/24 13:12:51;;;;;;;11.50;6.88;;;14.60;99.60;;;;;;5003771;28;20058;-80
2021/04/24 13:15:18;;;;;;;14.25;7.75;;;14.70;99.80;;;;;;5002368;28;20042;-81
2021/04/24 13:17:45;;;;;;;9.75;6.25;;;14.90;99.00;;;;;;5000652;28;20080;-80